Aldine, Texas
Current Conditions -  °F | °C
As of 9:22 AM on Friday 19 Dec 2014 (Local Time) from KIAH Reporting Station
Moderate Rain Moderate Rain  
Wind Chill: 15°   Ceiling: 700
Heat Index: 15°   Visibility: 3mi
Dew Point: 14°   Wind: 13mph
Humidity: 94%   Direction: 350°N
Pressure: 30.07"   Gusts: NA
Location:  29.93°N, 95.38°W
Report Text: KIAH 191522Z 35011KT 3SM RA BR BKN007 OVC011 15/14 A3007 RMK AO2 P0008
Loading
Personal Weather Stations






























Interactive Weather Map New forecast layout! Learn more

10-Day Weather Forecast

Advertisements
Track Severe Weather on mobile